EJU91FL LEPA-EDDB
Flight info
| Callsign | EJU91FL |
|---|---|
| Flight time | N/A |
| Altitude | 36000 |
| Route | MEROS N853 LUMAS DCT MAXIR DCT LUSOL DCT BODRU DCT OKTET DCT IRMAR DCT KINES DCT VANAS DCT MOBLO DCT UBIMA DCT SOSAL DCT KORED DCT BERSU DCT DITON/N0430F350 DCT LOKTA DCT TEDGO DCT TIKNI T279 TAMEB T278 KLF KLF1L |
| Aircraft | A320/M-SDE2E3FGHIJ1RWXYZ/LB1 |
Departure
| Time | 2026-05-04 14:26 |
|---|---|
| Airport | Palma de Mallorca Airport (LEPA) |
Arrival
| Time | N/A |
|---|---|
| Airport | Berlin Brandenburg Airport (EDDB) |
| Time | Latitude | Longitude | Altitude | Speed | Heading |
|---|---|---|---|---|---|
| 2026-05-04 13:53 | 39.55052 | 2.73684 | 36 ft | 0 kts | 239° |
| 2026-05-04 14:13 | 39.55052 | 2.73685 | 38 ft | 1 kts | 239° |
| 2026-05-04 14:14 | 39.55060 | 2.73702 | 38 ft | 3 kts | 241° |
| 2026-05-04 14:14 | 39.55078 | 2.73749 | 36 ft | 3 kts | 247° |
| 2026-05-04 14:14 | 39.55085 | 2.73774 | 36 ft | 3 kts | 256° |
| 2026-05-04 14:15 | 39.55084 | 2.73815 | 36 ft | 1 kts | 326° |
| 2026-05-04 14:15 | 39.55082 | 2.73817 | 36 ft | 0 kts | 329° |
| 2026-05-04 14:17 | 39.55166 | 2.73801 | 38 ft | 9 kts | 38° |
| 2026-05-04 14:18 | 39.55247 | 2.73791 | 38 ft | 18 kts | 333° |
| 2026-05-04 14:18 | 39.55433 | 2.73646 | 38 ft | 14 kts | 328° |
| 2026-05-04 14:19 | 39.55572 | 2.73539 | 38 ft | 10 kts | 329° |
| 2026-05-04 14:19 | 39.55630 | 2.73512 | 38 ft | 8 kts | 359° |
| 2026-05-04 14:19 | 39.55689 | 2.73575 | 38 ft | 17 kts | 55° |
| 2026-05-04 14:19 | 39.55749 | 2.73698 | 38 ft | 15 kts | 58° |
| 2026-05-04 14:20 | 39.55803 | 2.73808 | 38 ft | 14 kts | 58° |
| 2026-05-04 14:20 | 39.55849 | 2.73906 | 38 ft | 12 kts | 59° |
| 2026-05-04 14:20 | 39.55893 | 2.74003 | 38 ft | 15 kts | 59° |
| 2026-05-04 14:21 | 39.55994 | 2.74214 | 38 ft | 10 kts | 56° |
| 2026-05-04 14:21 | 39.56041 | 2.74266 | 38 ft | 8 kts | 31° |
| 2026-05-04 14:21 | 39.56065 | 2.74283 | 37 ft | 3 kts | 28° |
| 2026-05-04 14:21 | 39.56093 | 2.74302 | 38 ft | 10 kts | 28° |
| 2026-05-04 14:22 | 39.56127 | 2.74325 | 38 ft | 0 kts | 28° |
| 2026-05-04 14:22 | 39.56133 | 2.74329 | 38 ft | 1 kts | 28° |
| 2026-05-04 14:22 | 39.56134 | 2.74330 | 38 ft | 0 kts | 28° |
| 2026-05-04 14:23 | 39.56137 | 2.74332 | 38 ft | 3 kts | 28° |
| 2026-05-04 14:24 | 39.56209 | 2.74323 | 36 ft | 12 kts | 320° |
| 2026-05-04 14:24 | 39.56211 | 2.74240 | 37 ft | 0 kts | 244° |
| 2026-05-04 14:25 | 39.56164 | 2.74137 | 37 ft | 45 kts | 238° |
| 2026-05-04 14:26 | 39.55870 | 2.73523 | 38 ft | 112 kts | 238° |
| 2026-05-04 14:26 | 39.55364 | 2.72458 | 41 ft | 163 kts | 238° |
| 2026-05-04 14:26 | 39.54766 | 2.71167 | 643 ft | 165 kts | 239° |
| 2026-05-04 14:26 | 39.54187 | 2.69883 | 1428 ft | 167 kts | 238° |
| 2026-05-04 14:27 | 39.53546 | 2.68530 | 1805 ft | 186 kts | 238° |
| 2026-05-04 14:27 | 39.52839 | 2.67048 | 2177 ft | 198 kts | 238° |
| 2026-05-04 14:27 | 39.52104 | 2.65508 | 2791 ft | 203 kts | 237° |
| 2026-05-04 14:27 | 39.51355 | 2.63944 | 3520 ft | 205 kts | 237° |
| 2026-05-04 14:28 | 39.50604 | 2.62373 | 4279 ft | 205 kts | 237° |
| 2026-05-04 14:28 | 39.49750 | 2.60880 | 4862 ft | 215 kts | 221° |
| 2026-05-04 14:28 | 39.48404 | 2.59832 | 5143 ft | 238 kts | 208° |
| 2026-05-04 14:28 | 39.46876 | 2.58842 | 5671 ft | 251 kts | 208° |
| 2026-05-04 14:29 | 39.43703 | 2.56874 | 7160 ft | 259 kts | 200° |
| 2026-05-04 14:29 | 39.40101 | 2.57345 | 8629 ft | 282 kts | 151° |
| 2026-05-04 14:30 | 39.38726 | 2.59255 | 9355 ft | 298 kts | 121° |
| 2026-05-04 14:30 | 39.38260 | 2.61873 | 10012 ft | 314 kts | 89° |
| 2026-05-04 14:30 | 39.40337 | 2.66876 | 10936 ft | 340 kts | 44° |
| 2026-05-04 14:31 | 39.42113 | 2.69024 | 11197 ft | 359 kts | 40° |
| 2026-05-04 14:31 | 39.46060 | 2.73269 | 12234 ft | 375 kts | 38° |
| 2026-05-04 14:32 | 39.50067 | 2.77680 | 13525 ft | 382 kts | 40° |
| 2026-05-04 14:32 | 39.52060 | 2.79977 | 14124 ft | 385 kts | 40° |
| 2026-05-04 14:32 | 39.54052 | 2.82321 | 14667 ft | 389 kts | 41° |
| 2026-05-04 14:32 | 39.56057 | 2.84704 | 15231 ft | 393 kts | 41° |
| 2026-05-04 14:33 | 39.58079 | 2.87110 | 15750 ft | 397 kts | 40° |
| 2026-05-04 14:33 | 39.60124 | 2.89538 | 16288 ft | 401 kts | 40° |
| 2026-05-04 14:33 | 39.62193 | 2.91986 | 16805 ft | 404 kts | 40° |
| 2026-05-04 14:33 | 39.64282 | 2.94454 | 17336 ft | 408 kts | 40° |
| 2026-05-04 14:34 | 39.66391 | 2.96943 | 17852 ft | 412 kts | 40° |
| 2026-05-04 14:34 | 39.68519 | 2.99456 | 18345 ft | 416 kts | 39° |
| 2026-05-04 14:34 | 39.70669 | 3.01994 | 18774 ft | 420 kts | 39° |
| 2026-05-04 14:34 | 39.72840 | 3.04555 | 19187 ft | 424 kts | 39° |
| 2026-05-04 14:35 | 39.75029 | 3.07144 | 19588 ft | 428 kts | 39° |
| 2026-05-04 14:35 | 39.77241 | 3.09764 | 20033 ft | 431 kts | 40° |
| 2026-05-04 14:35 | 39.79463 | 3.12397 | 20466 ft | 434 kts | 40° |
| 2026-05-04 14:35 | 39.81702 | 3.15054 | 20869 ft | 438 kts | 40° |
| 2026-05-04 14:36 | 39.83962 | 3.17737 | 21261 ft | 442 kts | 40° |
| 2026-05-04 14:36 | 39.86239 | 3.20443 | 21651 ft | 446 kts | 40° |
| 2026-05-04 14:36 | 39.88537 | 3.23185 | 22034 ft | 449 kts | 40° |
| 2026-05-04 14:36 | 39.90847 | 3.25947 | 22407 ft | 453 kts | 40° |
| 2026-05-04 14:37 | 39.93152 | 3.28706 | 22772 ft | 457 kts | 40° |
| 2026-05-04 14:37 | 39.95501 | 3.31517 | 23136 ft | 461 kts | 40° |
| 2026-05-04 14:37 | 39.97868 | 3.34350 | 23498 ft | 464 kts | 40° |
| 2026-05-04 14:37 | 40.00253 | 3.37203 | 23845 ft | 467 kts | 40° |
| 2026-05-04 14:38 | 40.02653 | 3.40074 | 24175 ft | 469 kts | 40° |
| 2026-05-04 14:38 | 40.05064 | 3.42963 | 24489 ft | 472 kts | 40° |
| 2026-05-04 14:38 | 40.07486 | 3.45867 | 24783 ft | 475 kts | 40° |
| 2026-05-04 14:38 | 40.09923 | 3.48796 | 25080 ft | 478 kts | 41° |
| 2026-05-04 14:39 | 40.12373 | 3.51745 | 25382 ft | 480 kts | 41° |
| 2026-05-04 14:39 | 40.14837 | 3.54713 | 25666 ft | 483 kts | 41° |
| 2026-05-04 14:39 | 40.17319 | 3.57698 | 25946 ft | 486 kts | 41° |
| 2026-05-04 14:40 | 40.22318 | 3.63729 | 26533 ft | 492 kts | 41° |
| 2026-05-04 14:40 | 40.24839 | 3.66776 | 26809 ft | 495 kts | 41° |
| 2026-05-04 14:40 | 40.27373 | 3.69841 | 27088 ft | 497 kts | 41° |
| 2026-05-04 14:40 | 40.29922 | 3.72929 | 27354 ft | 500 kts | 41° |
| 2026-05-04 14:41 | 40.32478 | 3.76031 | 27616 ft | 503 kts | 41° |
| 2026-05-04 14:41 | 40.35050 | 3.79159 | 27888 ft | 506 kts | 41° |
| 2026-05-04 14:41 | 40.40230 | 3.85466 | 28419 ft | 510 kts | 42° |
| 2026-05-04 14:42 | 40.45459 | 3.91838 | 28971 ft | 515 kts | 42° |
| 2026-05-04 14:42 | 40.48087 | 3.95042 | 29213 ft | 517 kts | 42° |
| 2026-05-04 14:42 | 40.50734 | 3.98272 | 29444 ft | 520 kts | 42° |
| 2026-05-04 14:43 | 40.53386 | 4.01517 | 29676 ft | 522 kts | 42° |
| 2026-05-04 14:43 | 40.56045 | 4.04777 | 29899 ft | 525 kts | 42° |
| 2026-05-04 14:43 | 40.58720 | 4.08066 | 30099 ft | 527 kts | 42° |
| 2026-05-04 14:43 | 40.61401 | 4.11363 | 30305 ft | 528 kts | 42° |
| 2026-05-04 14:44 | 40.64086 | 4.14662 | 30604 ft | 528 kts | 42° |
| 2026-05-04 14:44 | 40.66768 | 4.17959 | 30899 ft | 527 kts | 42° |
| 2026-05-04 14:44 | 40.69443 | 4.21251 | 31182 ft | 526 kts | 42° |
| 2026-05-04 14:44 | 40.72105 | 4.24538 | 31514 ft | 524 kts | 42° |
| 2026-05-04 14:45 | 40.74769 | 4.27827 | 31714 ft | 526 kts | 42° |
| 2026-05-04 14:45 | 40.77412 | 4.31092 | 31845 ft | 529 kts | 42° |
| 2026-05-04 14:45 | 40.80100 | 4.34416 | 31988 ft | 531 kts | 42° |
| 2026-05-04 14:45 | 40.82797 | 4.37758 | 32227 ft | 532 kts | 42° |
| 2026-05-04 14:46 | 40.85591 | 4.41069 | 32443 ft | 531 kts | 36° |
| 2026-05-04 14:46 | 40.88584 | 4.43791 | 32679 ft | 528 kts | 27° |
| 2026-05-04 14:46 | 40.91850 | 4.45945 | 32924 ft | 523 kts | 17° |
| 2026-05-04 14:46 | 40.95272 | 4.47453 | 33178 ft | 516 kts | 8° |
| 2026-05-04 14:47 | 40.98769 | 4.48375 | 33427 ft | 511 kts | 4° |
| 2026-05-04 14:47 | 41.02272 | 4.49211 | 33689 ft | 511 kts | 4° |
| 2026-05-04 14:47 | 41.05759 | 4.50054 | 33969 ft | 510 kts | 4° |
| 2026-05-04 14:47 | 41.09258 | 4.50907 | 34140 ft | 511 kts | 5° |
| 2026-05-04 14:48 | 41.12755 | 4.51764 | 34359 ft | 511 kts | 5° |
| 2026-05-04 14:48 | 41.16250 | 4.52624 | 34580 ft | 510 kts | 5° |
| 2026-05-04 14:48 | 41.19739 | 4.53480 | 34821 ft | 509 kts | 4° |
| 2026-05-04 14:48 | 41.23218 | 4.54333 | 35067 ft | 508 kts | 4° |
| 2026-05-04 14:49 | 41.26691 | 4.55182 | 35316 ft | 507 kts | 4° |
| 2026-05-04 14:49 | 41.30162 | 4.56030 | 35516 ft | 506 kts | 4° |
| 2026-05-04 14:49 | 41.33626 | 4.56875 | 35723 ft | 506 kts | 4° |
| 2026-05-04 14:49 | 41.37079 | 4.57717 | 35881 ft | 505 kts | 4° |
| 2026-05-04 14:50 | 41.43969 | 4.59408 | 35946 ft | 502 kts | 4° |
| 2026-05-04 14:50 | 41.50837 | 4.61102 | 35945 ft | 502 kts | 4° |
| 2026-05-04 14:51 | 41.57694 | 4.62805 | 35947 ft | 502 kts | 4° |
| 2026-05-04 14:51 | 41.64565 | 4.64500 | 35948 ft | 501 kts | 4° |
| 2026-05-04 14:52 | 41.71412 | 4.66345 | 35960 ft | 506 kts | 11° |
| 2026-05-04 14:52 | 41.77864 | 4.70289 | 35958 ft | 515 kts | 27° |
| 2026-05-04 14:53 | 41.82971 | 4.74407 | 35960 ft | 515 kts | 27° |
| 2026-05-04 14:53 | 41.89115 | 4.79342 | 35971 ft | 515 kts | 27° |
| 2026-05-04 14:54 | 41.96256 | 4.85105 | 35961 ft | 515 kts | 27° |
| 2026-05-04 14:54 | 42.01394 | 4.89268 | 35968 ft | 515 kts | 27° |
| 2026-05-04 14:55 | 42.07526 | 4.94236 | 35970 ft | 514 kts | 27° |
| 2026-05-04 14:55 | 42.13654 | 4.99206 | 35971 ft | 514 kts | 27° |
| 2026-05-04 14:56 | 42.19733 | 5.04150 | 35969 ft | 513 kts | 27° |
| 2026-05-04 14:56 | 42.25844 | 5.09139 | 35975 ft | 513 kts | 27° |
| 2026-05-04 14:57 | 42.31951 | 5.14141 | 35986 ft | 513 kts | 27° |
| 2026-05-04 14:57 | 42.38059 | 5.19149 | 35986 ft | 513 kts | 27° |
| 2026-05-04 14:58 | 42.44160 | 5.24146 | 35983 ft | 513 kts | 27° |
| 2026-05-04 14:58 | 42.50254 | 5.29165 | 36003 ft | 513 kts | 27° |
| 2026-05-04 14:59 | 42.56354 | 5.34202 | 35978 ft | 513 kts | 27° |
| 2026-05-04 15:00 | 42.65495 | 5.41762 | 35994 ft | 513 kts | 27° |
| 2026-05-04 15:00 | 42.71581 | 5.46809 | 35988 ft | 512 kts | 27° |
| 2026-05-04 15:01 | 42.80700 | 5.54401 | 35996 ft | 512 kts | 27° |
| 2026-05-04 15:01 | 42.86771 | 5.59475 | 35995 ft | 512 kts | 27° |
| 2026-05-04 15:02 | 42.92842 | 5.64564 | 36024 ft | 512 kts | 27° |
| 2026-05-04 15:02 | 42.98913 | 5.69653 | 36022 ft | 512 kts | 27° |
| 2026-05-04 15:03 | 43.04976 | 5.74749 | 36009 ft | 512 kts | 27° |
| 2026-05-04 15:03 | 43.11036 | 5.79857 | 36039 ft | 511 kts | 27° |
| 2026-05-04 15:04 | 43.17051 | 5.84939 | 36044 ft | 511 kts | 27° |
| 2026-05-04 15:04 | 43.23100 | 5.90063 | 36042 ft | 511 kts | 27° |
| 2026-05-04 15:05 | 43.29140 | 5.95194 | 36049 ft | 511 kts | 28° |
| 2026-05-04 15:05 | 43.35188 | 6.00327 | 36056 ft | 509 kts | 25° |
| 2026-05-04 15:06 | 43.41667 | 6.03858 | 36055 ft | 495 kts | 6° |
| 2026-05-04 15:07 | 43.51778 | 6.05257 | 36058 ft | 486 kts | 357° |
| 2026-05-04 15:07 | 43.58527 | 6.05953 | 36048 ft | 486 kts | 357° |
| 2026-05-04 15:08 | 43.65268 | 6.06646 | 36045 ft | 486 kts | 357° |
| 2026-05-04 15:08 | 43.72020 | 6.07335 | 36060 ft | 487 kts | 358° |
| 2026-05-04 15:09 | 43.78725 | 6.09128 | 36040 ft | 499 kts | 15° |
| 2026-05-04 15:09 | 43.85050 | 6.13223 | 36045 ft | 503 kts | 21° |
| 2026-05-04 15:10 | 43.94446 | 6.19643 | 36065 ft | 502 kts | 21° |
| 2026-05-04 15:11 | 44.03797 | 6.26028 | 36070 ft | 501 kts | 21° |
| 2026-05-04 15:11 | 44.10050 | 6.30319 | 36083 ft | 501 kts | 22° |
| 2026-05-04 15:12 | 44.16299 | 6.34623 | 36072 ft | 501 kts | 22° |
| 2026-05-04 15:12 | 44.22539 | 6.38933 | 36072 ft | 500 kts | 22° |
| 2026-05-04 15:13 | 44.28768 | 6.43249 | 36098 ft | 500 kts | 22° |
| 2026-05-04 15:13 | 44.35006 | 6.47565 | 36067 ft | 499 kts | 22° |
| 2026-05-04 15:14 | 44.41219 | 6.51867 | 36081 ft | 498 kts | 22° |
| 2026-05-04 15:14 | 44.47426 | 6.56187 | 36119 ft | 497 kts | 22° |
| 2026-05-04 15:15 | 44.53619 | 6.60512 | 36119 ft | 496 kts | 22° |
| 2026-05-04 15:15 | 44.59758 | 6.64806 | 36124 ft | 496 kts | 22° |
| 2026-05-04 15:16 | 44.69009 | 6.71298 | 36138 ft | 496 kts | 22° |
| 2026-05-04 15:17 | 44.78365 | 6.77349 | 36128 ft | 488 kts | 11° |
| 2026-05-04 15:17 | 44.84966 | 6.78697 | 36139 ft | 473 kts | 353° |
| 2026-05-04 15:17 | 44.88240 | 6.78495 | 36143 ft | 471 kts | 351° |
| 2026-05-04 15:18 | 44.94788 | 6.78060 | 36144 ft | 471 kts | 351° |
| 2026-05-04 15:19 | 45.04594 | 6.77431 | 36152 ft | 471 kts | 351° |
| 2026-05-04 15:19 | 45.14372 | 6.76783 | 36135 ft | 471 kts | 352° |
| 2026-05-04 15:20 | 45.20912 | 6.76344 | 36148 ft | 471 kts | 352° |
| 2026-05-04 15:20 | 45.27453 | 6.75909 | 36136 ft | 470 kts | 352° |
| 2026-05-04 15:21 | 45.33987 | 6.75469 | 36128 ft | 470 kts | 352° |
| 2026-05-04 15:22 | 45.43786 | 6.74810 | 36127 ft | 470 kts | 352° |
| 2026-05-04 15:22 | 45.53576 | 6.74154 | 36124 ft | 469 kts | 352° |
| 2026-05-04 15:23 | 45.60102 | 6.73712 | 36127 ft | 470 kts | 352° |
| 2026-05-04 15:23 | 45.66630 | 6.73263 | 36088 ft | 470 kts | 352° |
| 2026-05-04 15:24 | 45.79647 | 6.72361 | 36093 ft | 470 kts | 353° |
| 2026-05-04 15:25 | 45.86182 | 6.71919 | 36081 ft | 471 kts | 352° |
| 2026-05-04 15:26 | 45.96001 | 6.71250 | 36076 ft | 471 kts | 352° |
| 2026-05-04 15:26 | 46.05839 | 6.70576 | 36053 ft | 473 kts | 352° |
| 2026-05-04 15:27 | 46.15723 | 6.71396 | 36049 ft | 484 kts | 12° |
| 2026-05-04 15:28 | 46.25426 | 6.75516 | 36048 ft | 485 kts | 13° |
| 2026-05-04 15:29 | 46.35149 | 6.79634 | 36049 ft | 485 kts | 13° |
| 2026-05-04 15:30 | 46.57152 | 6.91724 | 36059 ft | 490 kts | 40° |
| 2026-05-04 15:31 | 46.61721 | 6.99066 | 36056 ft | 490 kts | 51° |
| 2026-05-04 15:31 | 46.63856 | 7.02921 | 36059 ft | 490 kts | 51° |
| 2026-05-04 15:32 | 46.74529 | 7.22221 | 36062 ft | 491 kts | 51° |
| 2026-05-04 15:34 | 46.85182 | 7.41639 | 36030 ft | 490 kts | 51° |
| 2026-05-04 15:34 | 46.91556 | 7.53300 | 36035 ft | 489 kts | 51° |
| 2026-05-04 15:35 | 46.97875 | 7.64984 | 36039 ft | 487 kts | 52° |
| 2026-05-04 15:36 | 47.04174 | 7.76668 | 36010 ft | 487 kts | 52° |
| 2026-05-04 15:36 | 47.08373 | 7.84461 | 36008 ft | 486 kts | 52° |
| 2026-05-04 15:37 | 47.12559 | 7.92252 | 36019 ft | 486 kts | 52° |
| 2026-05-04 15:37 | 47.16302 | 8.00500 | 36000 ft | 485 kts | 59° |
| 2026-05-04 15:38 | 47.19854 | 8.08843 | 35995 ft | 485 kts | 59° |
| 2026-05-04 15:38 | 47.23426 | 8.17260 | 35996 ft | 485 kts | 59° |
| 2026-05-04 15:39 | 47.26992 | 8.25672 | 35984 ft | 485 kts | 59° |
| 2026-05-04 15:39 | 47.31099 | 8.33509 | 35975 ft | 484 kts | 43° |
| 2026-05-04 15:40 | 47.33696 | 8.36658 | 35990 ft | 483 kts | 33° |
| 2026-05-04 15:40 | 47.39304 | 8.42101 | 35989 ft | 482 kts | 32° |
| 2026-05-04 15:41 | 47.44918 | 8.47537 | 35983 ft | 482 kts | 32° |
| 2026-05-04 15:41 | 47.50526 | 8.52971 | 35988 ft | 482 kts | 32° |
| 2026-05-04 15:42 | 47.56139 | 8.58418 | 35985 ft | 482 kts | 33° |
| 2026-05-04 15:42 | 47.61736 | 8.63880 | 35980 ft | 482 kts | 33° |
| 2026-05-04 15:43 | 47.67298 | 8.69331 | 35977 ft | 482 kts | 33° |
| 2026-05-04 15:43 | 47.72894 | 8.74832 | 35979 ft | 483 kts | 33° |
| 2026-05-04 15:44 | 47.78493 | 8.80340 | 35971 ft | 483 kts | 33° |
| 2026-05-04 15:44 | 47.84096 | 8.85857 | 35955 ft | 483 kts | 33° |
| 2026-05-04 15:45 | 47.89699 | 8.91396 | 35942 ft | 483 kts | 32° |
| 2026-05-04 15:45 | 47.95296 | 8.96933 | 35966 ft | 482 kts | 32° |
| 2026-05-04 15:46 | 48.00880 | 9.02478 | 35975 ft | 482 kts | 33° |
| 2026-05-04 15:46 | 48.06459 | 9.08040 | 35971 ft | 482 kts | 33° |
| 2026-05-04 15:47 | 48.12024 | 9.13611 | 35975 ft | 481 kts | 33° |
| 2026-05-04 15:47 | 48.17962 | 9.17937 | 35974 ft | 477 kts | 14° |
| 2026-05-04 15:48 | 48.24445 | 9.19590 | 35970 ft | 473 kts | 4° |
| 2026-05-04 15:48 | 48.34261 | 9.21232 | 35970 ft | 473 kts | 4° |
| 2026-05-04 15:49 | 48.40797 | 9.22347 | 35967 ft | 474 kts | 4° |
| 2026-05-04 15:49 | 48.47355 | 9.23456 | 35967 ft | 474 kts | 4° |
| 2026-05-04 15:50 | 48.52800 | 9.24384 | 35970 ft | 474 kts | 4° |
| 2026-05-04 15:50 | 48.60420 | 9.25687 | 35971 ft | 474 kts | 4° |
| 2026-05-04 15:51 | 48.65864 | 9.27238 | 35970 ft | 476 kts | 10° |
| 2026-05-04 15:51 | 48.73384 | 9.29726 | 35980 ft | 476 kts | 10° |
| 2026-05-04 15:52 | 48.78806 | 9.31530 | 35980 ft | 476 kts | 10° |
| 2026-05-04 15:52 | 48.85230 | 9.33672 | 35983 ft | 476 kts | 10° |
| 2026-05-04 15:53 | 48.91697 | 9.35829 | 35981 ft | 476 kts | 10° |
| 2026-05-04 15:53 | 48.98157 | 9.38001 | 35987 ft | 475 kts | 10° |
| 2026-05-04 15:54 | 49.04616 | 9.40172 | 35992 ft | 475 kts | 10° |
| 2026-05-04 15:54 | 49.11064 | 9.42339 | 35997 ft | 475 kts | 10° |
| 2026-05-04 15:55 | 49.17516 | 9.44518 | 35996 ft | 474 kts | 10° |
| 2026-05-04 15:55 | 49.23962 | 9.46700 | 35998 ft | 474 kts | 10° |
| 2026-05-04 15:56 | 49.30410 | 9.48884 | 35995 ft | 474 kts | 10° |
| 2026-05-04 15:56 | 49.36849 | 9.51079 | 36002 ft | 474 kts | 10° |
| 2026-05-04 15:57 | 49.43290 | 9.53283 | 36000 ft | 474 kts | 10° |
| 2026-05-04 15:57 | 49.49735 | 9.55480 | 35996 ft | 474 kts | 10° |
| 2026-05-04 15:58 | 49.56179 | 9.57682 | 35994 ft | 475 kts | 10° |
| 2026-05-04 15:58 | 49.62631 | 9.59896 | 35996 ft | 475 kts | 9° |
| 2026-05-04 15:59 | 49.69082 | 9.62124 | 35988 ft | 475 kts | 10° |
| 2026-05-04 15:59 | 49.75533 | 9.64362 | 35984 ft | 475 kts | 10° |
| 2026-05-04 16:00 | 49.81991 | 9.66604 | 35988 ft | 476 kts | 9° |
| 2026-05-04 16:00 | 49.88457 | 9.68845 | 35984 ft | 476 kts | 9° |
| 2026-05-04 16:01 | 49.94922 | 9.71086 | 35982 ft | 476 kts | 9° |
| 2026-05-04 16:01 | 50.01386 | 9.73349 | 35990 ft | 476 kts | 9° |
| 2026-05-04 16:02 | 50.07848 | 9.75623 | 35981 ft | 477 kts | 9° |
| 2026-05-04 16:03 | 50.17519 | 9.79017 | 35972 ft | 477 kts | 9° |
| 2026-05-04 16:03 | 50.23999 | 9.81302 | 35986 ft | 477 kts | 9° |
| 2026-05-04 16:04 | 50.30470 | 9.83597 | 35988 ft | 477 kts | 9° |
| 2026-05-04 16:04 | 50.39996 | 9.88135 | 35981 ft | 483 kts | 26° |
| 2026-05-04 16:05 | 50.42827 | 9.90991 | 35975 ft | 485 kts | 37° |
| 2026-05-04 16:05 | 50.45329 | 9.94531 | 35982 ft | 486 kts | 46° |
| 2026-05-04 16:06 | 50.52298 | 10.06128 | 35974 ft | 487 kts | 45° |
| 2026-05-04 16:07 | 50.61590 | 10.21652 | 35978 ft | 487 kts | 46° |
| 2026-05-04 16:07 | 50.67606 | 10.34469 | 35966 ft | 487 kts | 62° |
| 2026-05-04 16:08 | 50.69219 | 10.39169 | 35976 ft | 487 kts | 62° |
| 2026-05-04 16:08 | 50.73992 | 10.53060 | 35986 ft | 472 kts | 62° |
| 2026-05-04 16:09 | 50.77098 | 10.62153 | 35985 ft | 470 kts | 62° |
| 2026-05-04 16:10 | 50.83277 | 10.80359 | 35985 ft | 470 kts | 62° |
| 2026-05-04 16:11 | 50.89433 | 10.98602 | 35975 ft | 469 kts | 62° |
| 2026-05-04 16:12 | 50.98593 | 11.26020 | 35976 ft | 469 kts | 62° |
| 2026-05-04 16:13 | 51.04670 | 11.44346 | 35960 ft | 469 kts | 62° |
| 2026-05-04 16:14 | 51.10711 | 11.62751 | 35960 ft | 470 kts | 62° |
| 2026-05-04 16:15 | 51.15221 | 11.76602 | 35354 ft | 467 kts | 62° |
| 2026-05-04 16:16 | 51.18178 | 11.85724 | 34413 ft | 460 kts | 62° |
| 2026-05-04 16:16 | 51.23273 | 11.98407 | 32868 ft | 449 kts | 44° |
| 2026-05-04 16:17 | 51.27547 | 12.05542 | 31943 ft | 441 kts | 44° |
| 2026-05-04 16:18 | 51.33797 | 12.16071 | 29917 ft | 429 kts | 45° |
| 2026-05-04 16:18 | 51.35838 | 12.19526 | 29076 ft | 425 kts | 45° |
| 2026-05-04 16:19 | 51.41781 | 12.29598 | 26817 ft | 409 kts | 45° |
| 2026-05-04 16:19 | 51.45631 | 12.36145 | 25401 ft | 398 kts | 45° |
| 2026-05-04 16:20 | 51.51216 | 12.45668 | 23406 ft | 383 kts | 46° |
| 2026-05-04 16:20 | 51.54822 | 12.51840 | 21977 ft | 374 kts | 46° |
| 2026-05-04 16:21 | 51.60066 | 12.60843 | 19973 ft | 361 kts | 46° |
| 2026-05-04 16:22 | 51.63466 | 12.66692 | 18709 ft | 355 kts | 46° |
| 2026-05-04 16:22 | 51.68440 | 12.75298 | 16869 ft | 347 kts | 46° |
| 2026-05-04 16:23 | 51.73316 | 12.83753 | 15883 ft | 340 kts | 46° |
| 2026-05-04 16:24 | 51.79255 | 12.95370 | 14598 ft | 333 kts | 59° |
| 2026-05-04 16:25 | 51.81636 | 13.01700 | 14033 ft | 330 kts | 58° |
| 2026-05-04 16:26 | 51.86362 | 13.14298 | 12694 ft | 323 kts | 58° |
| 2026-05-04 16:26 | 51.89813 | 13.23546 | 11676 ft | 317 kts | 58° |
| 2026-05-04 16:27 | 51.92058 | 13.29586 | 11123 ft | 310 kts | 58° |
| 2026-05-04 16:28 | 51.95221 | 13.38119 | 10950 ft | 275 kts | 58° |
| 2026-05-04 16:28 | 51.98095 | 13.45904 | 10952 ft | 266 kts | 58° |
| 2026-05-04 16:29 | 52.02120 | 13.55878 | 10363 ft | 261 kts | 41° |
| 2026-05-04 16:30 | 52.06611 | 13.60570 | 9468 ft | 254 kts | 26° |
| 2026-05-04 16:31 | 52.09681 | 13.63360 | 8855 ft | 251 kts | 26° |
| 2026-05-04 16:31 | 52.14210 | 13.67464 | 7944 ft | 246 kts | 26° |
| 2026-05-04 16:32 | 52.18651 | 13.71532 | 7023 ft | 242 kts | 27° |
| 2026-05-04 16:33 | 52.21560 | 13.74216 | 6420 ft | 240 kts | 27° |
| 2026-05-04 16:33 | 52.24453 | 13.76873 | 5818 ft | 237 kts | 27° |
| 2026-05-04 16:34 | 52.27298 | 13.79494 | 5209 ft | 235 kts | 28° |
| 2026-05-04 16:34 | 52.28717 | 13.80803 | 4927 ft | 234 kts | 28° |
| 2026-05-04 16:35 | 52.32928 | 13.84684 | 4047 ft | 228 kts | 27° |
| 2026-05-04 16:35 | 52.37284 | 13.87606 | 4012 ft | 226 kts | 2° |
| 2026-05-04 16:36 | 52.38794 | 13.87516 | 4000 ft | 209 kts | 347° |
| 2026-05-04 16:36 | 52.41393 | 13.86122 | 4016 ft | 191 kts | 335° |
| 2026-05-04 16:37 | 52.42885 | 13.82917 | 3940 ft | 187 kts | 270° |
| 2026-05-04 16:37 | 52.42568 | 13.80863 | 3564 ft | 193 kts | 237° |
| 2026-05-04 16:37 | 52.40924 | 13.77591 | 3342 ft | 155 kts | 251° |
| 2026-05-04 16:38 | 52.40736 | 13.76069 | 4163 ft | 132 kts | 272° |
| 2026-05-04 16:39 | 52.41291 | 13.71879 | 5277 ft | 190 kts | 268° |